Time;durP1;ratioP1;P1;durP2;ratioP2;P2;SDS_P1;SDS_P2;PMS_P1;PMS_P2;Temp;Humidity;BMP_temperature;BMP_pressure;BME280_temperature;BME280_humidity;BME280_pressure;Samples;Min_cycle;Max_cycle;Signal;HPM_P1;HPM_P2
2024/01/08 00:01:35;;;;;;;7.10;4.00;;;-1.50;99.90;;;;;;5048995;28;20040;-82
2024/01/08 00:04:00;;;;;;;7.18;3.63;;;-1.50;99.90;;;;;;5071487;28;20040;-84
2024/01/08 00:06:26;;;;;;;8.65;3.42;;;-1.50;99.90;;;;;;5051886;28;20052;-82
2024/01/08 00:08:52;;;;;;;8.15;3.60;;;-1.50;99.90;;;;;;5053184;28;20036;-84
2024/01/08 00:11:17;;;;;;;8.60;3.88;;;-1.60;99.90;;;;;;5033709;28;20052;-81
2024/01/08 00:13:43;;;;;;;17.77;3.55;;;-1.40;99.90;;;;;;5067926;28;20120;-90
2024/01/08 00:16:09;;;;;;;6.60;3.50;;;-1.50;99.90;;;;;;5070590;28;20123;-89
2024/01/08 00:18:34;;;;;;;10.18;4.15;;;-1.50;99.90;;;;;;5052645;28;20059;-82
2024/01/08 00:21:02;;;;;;;7.95;3.47;;;-1.40;99.90;;;;;;5070759;28;20036;-87
2024/01/08 00:23:29;;;;;;;7.63;3.92;;;-1.50;99.90;;;;;;5053427;28;20522;-85
2024/01/08 00:25:55;;;;;;;8.90;3.45;;;-1.40;99.90;;;;;;5050415;28;20454;-81
2024/01/08 00:28:21;;;;;;;7.93;3.70;;;-1.50;99.90;;;;;;5071394;28;20150;-88
2024/01/08 00:30:46;;;;;;;8.35;3.42;;;-1.50;99.90;;;;;;5051087;28;20049;-88
2024/01/08 00:33:12;;;;;;;14.07;4.50;;;-1.50;99.90;;;;;;5052456;28;20048;-83
2024/01/08 00:35:38;;;;;;;7.40;4.00;;;-1.50;99.90;;;;;;5050014;28;20072;-81
2024/01/08 00:38:03;;;;;;;8.23;3.63;;;-1.60;99.90;;;;;;5052189;28;20044;-84
2024/01/08 00:40:32;;;;;;;6.43;3.03;;;-1.60;99.90;;;;;;5071213;28;20040;-87
2024/01/08 00:42:57;;;;;;;8.45;3.70;;;-1.60;99.90;;;;;;5032952;28;20139;-81
2024/01/08 00:45:23;;;;;;;11.70;3.40;;;-1.70;99.90;;;;;;5070459;28;20044;-82
2024/01/08 00:47:49;;;;;;;8.45;3.67;;;-1.60;99.90;;;;;;5070474;28;20475;-87
2024/01/08 00:50:15;;;;;;;7.47;3.33;;;-1.70;99.90;;;;;;5051636;28;20137;-84
2024/01/08 00:52:41;;;;;;;6.63;3.65;;;-1.80;99.90;;;;;;5048930;28;20171;-86
2024/01/08 00:55:08;;;;;;;9.07;4.25;;;-1.80;99.90;;;;;;5049909;28;20131;-85
2024/01/08 00:57:34;;;;;;;8.55;3.80;;;-1.70;99.90;;;;;;5048688;28;20086;-82
2024/01/08 01:00:00;;;;;;;7.75;3.55;;;-1.90;99.90;;;;;;5066784;28;20040;-85
2024/01/08 01:02:26;;;;;;;8.00;3.75;;;-1.80;99.90;;;;;;5051887;28;20218;-88
2024/01/08 01:04:51;;;;;;;7.07;3.88;;;-1.90;99.90;;;;;;5069573;28;20458;-83
2024/01/08 01:07:17;;;;;;;6.40;3.38;;;-2.00;99.90;;;;;;5070098;28;20502;-88
2024/01/08 01:09:43;;;;;;;7.32;4.05;;;-2.10;99.90;;;;;;5048201;28;20061;-84
2024/01/08 01:12:09;;;;;;;9.25;4.28;;;-2.10;99.90;;;;;;5048390;28;20416;-88
2024/01/08 01:14:35;;;;;;;7.85;3.92;;;-2.00;99.90;;;;;;5069149;28;20033;-87
2024/01/08 01:17:01;;;;;;;9.02;4.15;;;-2.20;99.90;;;;;;5051542;28;20048;-83
2024/01/08 01:19:26;;;;;;;9.57;4.07;;;-0.30;99.90;;;;;;5069726;28;20503;-85
2024/01/08 01:21:53;;;;;;;7.25;3.78;;;-2.10;99.90;;;;;;5051982;28;20041;-83
2024/01/08 01:24:19;;;;;;;8.70;4.07;;;-2.20;99.90;;;;;;5069955;28;20118;-87
2024/01/08 01:26:44;;;;;;;8.70;4.43;;;-0.50;99.90;;;;;;5070108;28;20036;-82
2024/01/08 01:29:10;;;;;;;9.00;4.70;;;-2.30;99.90;;;;;;5069913;28;20059;-83
2024/01/08 01:31:36;;;;;;;6.75;3.45;;;-2.30;99.90;;;;;;5069845;28;20048;-85
2024/01/08 01:34:06;;;;;;;10.65;4.28;;;-2.40;99.90;;;;;;5051411;28;20066;-85
2024/01/08 01:36:35;;;;;;;10.13;3.80;;;-0.70;99.90;;;;;;5051561;28;20106;-85
2024/01/08 01:39:05;;;;;;;10.55;4.45;;;-2.20;99.90;;;;;;5050833;28;20120;-88
2024/01/08 01:41:34;;;;;;;9.70;4.57;;;-2.20;99.90;;;;;;5033887;28;20063;-86
2024/01/08 01:43:59;;;;;;;8.48;3.83;;;-2.20;99.90;;;;;;5069619;28;20491;-89
2024/01/08 01:46:44;;;;;;;7.32;3.55;;;-2.30;99.90;;;;;;5069321;28;20041;-84
2024/01/08 01:49:17;;;;;;;7.63;4.28;;;-0.60;99.90;;;;;;5051164;28;20060;-87
2024/01/08 01:51:45;;;;;;;9.13;3.80;;;-2.20;99.90;;;;;;5069075;28;20072;-84
2024/01/08 01:54:16;;;;;;;9.85;4.50;;;-2.30;99.90;;;;;;5049436;28;20119;-86
2024/01/08 01:56:46;;;;;;;10.48;4.00;;;-2.30;99.90;;;;;;5069446;28;20048;-85
2024/01/08 01:59:14;;;;;;;10.10;4.75;;;-2.30;99.90;;;;;;5069378;28;20084;-85
2024/01/08 02:01:39;;;;;;;8.75;4.10;;;-2.30;99.90;;;;;;5069492;28;20093;-85
2024/01/08 02:04:05;;;;;;;7.60;4.38;;;-2.10;99.90;;;;;;5048072;28;20041;-84
2024/01/08 02:06:33;;;;;;;9.45;4.80;;;-2.10;99.90;;;;;;5069380;28;20129;-84
2024/01/08 02:08:59;;;;;;;12.35;5.03;;;-2.30;99.90;;;;;;5069171;28;20051;-87
2024/01/08 02:11:25;;;;;;;8.73;4.63;;;-2.20;99.90;;;;;;5051298;28;20045;-86
2024/01/08 02:13:50;;;;;;;9.88;4.88;;;-2.10;99.90;;;;;;5050992;28;20119;-87
2024/01/08 02:16:18;;;;;;;14.43;5.85;;;-2.20;99.90;;;;;;5052268;28;20115;-86
2024/01/08 02:18:43;;;;;;;7.78;4.28;;;-2.10;99.90;;;;;;5055374;28;20493;-85
2024/01/08 02:21:09;;;;;;;10.15;5.18;;;-2.10;99.90;;;;;;5073701;28;20087;-84
2024/01/08 02:23:35;;;;;;;12.40;5.47;;;-2.10;99.90;;;;;;5038042;28;20067;-85
2024/01/08 02:26:01;;;;;;;10.57;5.45;;;-2.00;99.90;;;;;;5055630;28;20040;-88
2024/01/08 02:28:27;;;;;;;9.82;4.75;;;-2.10;99.90;;;;;;5055475;28;20172;-83
2024/01/08 02:30:52;;;;;;;10.70;5.30;;;-2.00;99.90;;;;;;5055003;28;20143;-84
2024/01/08 02:33:18;;;;;;;10.00;5.35;;;-2.10;99.90;;;;;;5055796;28;20044;-84
2024/01/08 02:35:44;;;;;;;10.32;5.55;;;-2.00;99.90;;;;;;5072782;28;20040;-87
2024/01/08 02:38:09;;;;;;;8.38;5.03;;;-1.90;99.90;;;;;;5073025;28;20049;-89
2024/01/08 02:40:35;;;;;;;9.48;5.20;;;-1.90;99.90;;;;;;5072262;28;20123;-82
2024/01/08 02:43:00;;;;;;;8.68;5.00;;;-1.90;99.90;;;;;;5072879;28;20043;-88
2024/01/08 02:45:26;;;;;;;9.48;5.18;;;-1.80;99.90;;;;;;5055017;28;20048;-86
2024/01/08 02:47:52;;;;;;;9.48;5.40;;;-1.80;99.90;;;;;;5054982;28;20118;-88
2024/01/08 02:50:17;;;;;;;8.77;5.20;;;-1.80;99.90;;;;;;5067231;28;20048;-86
2024/01/08 02:52:44;;;;;;;11.85;5.85;;;-1.80;99.90;;;;;;5073019;28;20059;-85
2024/01/08 02:55:10;;;;;;;9.07;5.03;;;-1.80;99.90;;;;;;5053390;28;20052;-84
2024/01/08 02:57:36;;;;;;;10.68;5.47;;;-1.80;99.90;;;;;;5072480;28;20049;-83
2024/01/08 03:00:04;;;;;;;10.55;5.07;;;-1.70;99.90;;;;;;5054654;28;20041;-88
2024/01/08 03:02:30;;;;;;;11.88;5.78;;;-1.80;99.90;;;;;;5049968;28;20048;-88
2024/01/08 03:04:56;;;;;;;9.75;6.03;;;-1.70;99.90;;;;;;5053577;28;20095;-83
2024/01/08 03:07:21;;;;;;;10.40;6.00;;;-1.80;99.90;;;;;;5072411;28;20048;-84
2024/01/08 03:09:47;;;;;;;13.30;5.88;;;-1.80;99.90;;;;;;5051400;28;20128;-84
2024/01/08 03:12:14;;;;;;;10.77;5.60;;;-1.80;99.90;;;;;;5072143;28;20051;-84
2024/01/08 03:14:40;;;;;;;9.95;4.88;;;-1.60;99.90;;;;;;5072348;28;20040;-83
2024/01/08 03:17:05;;;;;;;10.30;5.70;;;-1.60;99.90;;;;;;5072016;28;20049;-87
2024/01/08 03:19:31;;;;;;;10.32;6.10;;;-1.70;99.90;;;;;;5054248;28;20495;-84
2024/01/08 03:22:00;;;;;;;10.90;5.70;;;-1.60;99.90;;;;;;5035294;28;20040;-85
2024/01/08 03:24:25;;;;;;;14.45;6.00;;;-1.60;99.90;;;;;;5072356;28;20127;-84
2024/01/08 03:26:51;;;;;;;10.90;5.25;;;-1.50;99.90;;;;;;5071524;28;20186;-84
2024/01/08 03:29:16;;;;;;;12.23;5.65;;;-1.70;99.90;;;;;;5071472;28;20501;-83
2024/01/08 03:31:45;;;;;;;10.05;5.55;;;-1.50;99.90;;;;;;5034426;28;20064;-82
2024/01/08 03:34:12;;;;;;;11.15;5.90;;;0.10;99.90;;;;;;5053708;28;20037;-88
2024/01/08 03:36:38;;;;;;;15.40;5.15;;;-1.40;99.90;;;;;;5072324;28;20075;-82
2024/01/08 03:39:03;;;;;;;11.13;4.63;;;-1.40;99.90;;;;;;5053375;28;20070;-83
2024/01/08 03:41:29;;;;;;;9.07;4.47;;;-1.40;99.90;;;;;;5050582;28;20171;-84
2024/01/08 03:43:55;;;;;;;8.00;4.53;;;-1.50;99.90;;;;;;5069449;28;20049;-83
2024/01/08 03:46:20;;;;;;;6.80;3.60;;;-1.40;99.90;;;;;;5053511;28;20033;-85
2024/01/08 03:48:46;;;;;;;7.95;3.78;;;-1.40;99.90;;;;;;5053554;28;20044;-83
2024/01/08 03:51:11;;;;;;;9.38;4.00;;;-1.40;99.90;;;;;;5053329;28;20419;-91
2024/01/08 03:53:37;;;;;;;7.85;4.35;;;-1.30;99.90;;;;;;5053949;28;20407;-83
2024/01/08 03:56:03;;;;;;;12.00;4.20;;;-1.30;99.90;;;;;;5052119;28;20040;-81
2024/01/08 03:58:29;;;;;;;9.02;3.88;;;-1.30;99.90;;;;;;5062911;28;20094;-82
2024/01/08 04:00:54;;;;;;;8.70;4.50;;;0.30;99.90;;;;;;5049985;28;20490;-81
2024/01/08 04:03:20;;;;;;;11.77;4.22;;;-1.20;99.90;;;;;;5049349;28;20072;-84
2024/01/08 04:05:46;;;;;;;9.82;4.20;;;-1.30;99.90;;;;;;5061651;28;20040;-81
2024/01/08 04:08:12;;;;;;;9.25;4.30;;;-1.30;99.90;;;;;;5062442;28;20046;-82
2024/01/08 04:10:38;;;;;;;8.57;4.28;;;-1.20;99.90;;;;;;5051400;28;20064;-88
2024/01/08 04:13:04;;;;;;;10.45;5.55;;;-1.20;99.90;;;;;;5048376;28;20056;-82
2024/01/08 04:15:33;;;;;;;9.93;4.47;;;-1.20;99.90;;;;;;5068624;28;20043;-80
2024/01/08 04:18:02;;;;;;;9.25;4.57;;;0.00;99.90;;;;;;5052276;28;20095;-81
2024/01/08 04:20:31;;;;;;;11.98;5.13;;;-1.20;99.90;;;;;;5068954;28;20052;-82
2024/01/08 04:22:57;;;;;;;8.25;4.55;;;-1.20;99.90;;;;;;5070988;28;20395;-81
2024/01/08 04:25:22;;;;;;;8.68;4.40;;;-1.20;99.90;;;;;;5052078;28;20053;-88
2024/01/08 04:27:48;;;;;;;10.98;4.85;;;-1.30;99.90;;;;;;5052856;28;20470;-81
2024/01/08 04:30:14;;;;;;;9.63;4.45;;;-1.20;99.90;;;;;;5051927;28;20040;-83
2024/01/08 04:32:40;;;;;;;11.05;5.00;;;0.30;99.90;;;;;;5070515;28;20119;-82
2024/01/08 04:35:06;;;;;;;10.40;4.40;;;-1.20;99.90;;;;;;5070721;28;20157;-85
2024/01/08 04:37:32;;;;;;;11.82;4.90;;;-1.20;99.90;;;;;;5070860;28;20094;-84
2024/01/08 04:39:57;;;;;;;8.05;4.40;;;-1.20;99.90;;;;;;5034149;28;20415;-82
2024/01/08 04:42:23;;;;;;;10.02;4.63;;;-1.20;99.90;;;;;;5070342;28;20028;-82
2024/01/08 04:44:49;;;;;;;10.15;4.50;;;-1.20;99.90;;;;;;5052575;28;20056;-87
2024/01/08 04:47:14;;;;;;;10.82;4.13;;;-1.20;99.90;;;;;;5065372;28;20045;-84
2024/01/08 04:49:40;;;;;;;9.40;4.88;;;-1.20;99.90;;;;;;5052040;28;20053;-81
2024/01/08 04:52:06;;;;;;;8.43;4.22;;;-1.20;99.90;;;;;;5052419;28;20040;-82
2024/01/08 04:54:32;;;;;;;8.57;3.90;;;-1.20;99.90;;;;;;5052264;28;20111;-82
2024/01/08 04:56:58;;;;;;;9.48;4.03;;;-1.30;99.90;;;;;;5070327;28;20449;-86
2024/01/08 04:59:24;;;;;;;8.25;3.03;;;-0.20;99.90;;;;;;5052352;28;20449;-82
2024/01/08 05:01:50;;;;;;;5.82;3.25;;;-1.30;99.90;;;;;;5070215;28;20033;-86
2024/01/08 05:04:16;;;;;;;13.57;3.58;;;-1.30;99.90;;;;;;5070029;28;20044;-83
2024/01/08 05:06:44;;;;;;;5.65;2.95;;;-1.30;99.90;;;;;;5070016;28;20079;-85
2024/01/08 05:09:10;;;;;;;7.63;3.00;;;-1.30;99.90;;;;;;5051477;28;20092;-80
2024/01/08 05:11:36;;;;;;;5.63;2.67;;;-1.30;99.90;;;;;;5052145;28;20147;-83
2024/01/08 05:14:03;;;;;;;7.97;3.10;;;-1.40;99.90;;;;;;5070210;28;20120;-83
2024/01/08 05:16:29;;;;;;;5.53;3.33;;;-1.50;99.90;;;;;;5069568;28;20431;-84
2024/01/08 05:18:54;;;;;;;6.50;2.90;;;-1.50;99.90;;;;;;5047837;28;20131;-83
2024/01/08 05:21:20;;;;;;;7.55;2.83;;;-1.50;99.90;;;;;;5051631;28;20372;-87
2024/01/08 05:23:46;;;;;;;7.47;3.10;;;-1.60;99.90;;;;;;5051675;28;20129;-90
2024/01/08 05:26:12;;;;;;;6.40;2.72;;;-1.70;99.90;;;;;;5051847;28;20078;-81
2024/01/08 05:28:37;;;;;;;6.55;2.70;;;-1.70;99.90;;;;;;5069590;28;20711;-85
2024/01/08 05:31:03;;;;;;;5.78;2.40;;;-1.70;99.90;;;;;;5069638;28;20044;-82
2024/01/08 05:33:29;;;;;;;5.32;2.83;;;-1.80;99.90;;;;;;5048996;28;20122;-88
2024/01/08 05:35:55;;;;;;;6.38;3.20;;;-1.80;99.90;;;;;;5069415;28;20127;-81
2024/01/08 05:38:21;;;;;;;6.30;2.78;;;-1.80;99.90;;;;;;5069637;28;20041;-85
2024/01/08 05:40:47;;;;;;;7.30;3.10;;;-1.90;99.90;;;;;;5069174;28;20044;-79
2024/01/08 05:43:13;;;;;;;7.45;3.65;;;-2.00;99.90;;;;;;5069698;28;20400;-84
2024/01/08 05:45:39;;;;;;;8.77;3.22;;;-2.00;99.90;;;;;;5051797;28;20400;-83
2024/01/08 05:48:06;;;;;;;8.98;3.10;;;-1.90;99.90;;;;;;5069037;28;20037;-86
2024/01/08 05:50:31;;;;;;;7.93;3.50;;;-2.00;99.90;;;;;;5069376;28;20068;-86
2024/01/08 05:52:57;;;;;;;7.95;3.08;;;-2.00;99.90;;;;;;5069309;28;20079;-79
2024/01/08 05:55:23;;;;;;;9.65;3.42;;;-2.20;99.90;;;;;;5063327;28;20169;-81
2024/01/08 05:57:49;;;;;;;5.45;2.95;;;-2.10;99.90;;;;;;5032231;28;20061;-87
2024/01/08 06:00:16;;;;;;;5.72;3.03;;;-2.10;99.90;;;;;;5068779;28;20040;-84
2024/01/08 06:02:42;;;;;;;6.95;3.33;;;-2.10;99.90;;;;;;5063254;28;20364;-85
2024/01/08 06:05:08;;;;;;;7.18;3.72;;;-2.10;99.90;;;;;;5050077;28;20048;-86
2024/01/08 06:07:35;;;;;;;7.88;3.67;;;-2.10;99.90;;;;;;5068715;28;20364;-84
2024/01/08 06:10:00;;;;;;;8.32;3.35;;;-2.20;99.90;;;;;;5048440;28;20041;-83
2024/01/08 06:12:26;;;;;;;6.40;3.50;;;-2.20;99.90;;;;;;5050619;28;20182;-83
2024/01/08 06:14:52;;;;;;;6.78;3.63;;;-2.30;99.90;;;;;;5048455;28;20041;-82
2024/01/08 06:17:18;;;;;;;6.72;3.10;;;-2.20;99.90;;;;;;5034627;28;20115;-82
2024/01/08 06:19:44;;;;;;;9.70;3.42;;;-2.20;99.90;;;;;;5069202;28;20142;-78
2024/01/08 06:22:09;;;;;;;6.63;3.55;;;-2.30;99.90;;;;;;5069543;28;20094;-81
2024/01/08 06:24:35;;;;;;;6.15;3.10;;;-2.40;99.90;;;;;;5050447;28;20084;-82
2024/01/08 06:27:01;;;;;;;8.65;3.78;;;-2.30;99.90;;;;;;5031012;28;20504;-82
2024/01/08 06:29:26;;;;;;;10.13;4.72;;;-2.30;99.90;;;;;;5066919;28;20059;-84
2024/01/08 06:31:52;;;;;;;7.72;3.80;;;-2.30;99.90;;;;;;5069408;28;20044;-81
2024/01/08 06:34:18;;;;;;;7.35;3.75;;;-2.40;99.90;;;;;;5069111;28;20052;-88
2024/01/08 06:36:43;;;;;;;7.90;3.47;;;-2.40;99.90;;;;;;5033411;28;20056;-81
2024/01/08 06:39:09;;;;;;;8.98;4.03;;;-2.30;99.90;;;;;;5069077;28;20110;-84
2024/01/08 06:41:36;;;;;;;9.65;3.85;;;-2.30;99.90;;;;;;5050991;28;20108;-81
2024/01/08 06:44:02;;;;;;;7.22;3.72;;;-2.30;99.90;;;;;;5069198;28;20681;-86
2024/01/08 06:46:28;;;;;;;11.30;3.42;;;-2.20;99.90;;;;;;5047493;28;20480;-83
2024/01/08 06:48:53;;;;;;;10.20;3.72;;;-2.20;99.90;;;;;;5067689;28;20123;-84
2024/01/08 06:51:19;;;;;;;9.63;4.03;;;-2.10;99.90;;;;;;5069465;28;20040;-89
2024/01/08 06:53:46;;;;;;;11.48;3.70;;;-2.20;99.90;;;;;;5030622;28;20057;-85
2024/01/08 06:56:12;;;;;;;7.40;3.55;;;-2.10;99.90;;;;;;5047587;28;20045;-86
2024/01/08 06:58:37;;;;;;;9.85;3.95;;;-2.10;99.90;;;;;;5065024;28;20052;-84
2024/01/08 07:01:05;;;;;;;8.95;3.53;;;-2.00;99.90;;;;;;5068452;28;20111;-81
2024/01/08 07:03:34;;;;;;;7.18;3.58;;;-2.00;99.90;;;;;;5071657;28;20044;-85
2024/01/08 07:06:01;;;;;;;8.70;3.92;;;-2.00;99.90;;;;;;5053868;28;20048;-83
2024/01/08 07:08:26;;;;;;;13.40;3.83;;;-1.90;99.90;;;;;;5072055;28;20136;-87
2024/01/08 07:10:52;;;;;;;6.93;3.15;;;-2.00;99.90;;;;;;5054347;28;20563;-88
2024/01/08 07:13:18;;;;;;;15.85;4.10;;;-1.90;99.90;;;;;;5072801;28;20045;-83
2024/01/08 07:15:46;;;;;;;7.68;3.80;;;-1.90;99.90;;;;;;5072548;28;20435;-81
2024/01/08 07:18:13;;;;;;;12.32;3.83;;;-1.80;99.90;;;;;;5072044;28;20103;-83
2024/01/08 07:20:40;;;;;;;9.20;3.10;;;-1.80;99.90;;;;;;5054160;28;20090;-84
2024/01/08 07:23:08;;;;;;;9.52;3.85;;;-1.80;99.90;;;;;;5054377;28;20072;-82
2024/01/08 07:25:41;;;;;;;9.18;3.53;;;-1.70;99.90;;;;;;5054162;28;20048;-84
2024/01/08 07:28:09;;;;;;;7.35;3.75;;;-1.70;99.90;;;;;;5053972;28;20036;-84
2024/01/08 07:30:35;;;;;;;6.65;3.47;;;-1.70;99.90;;;;;;5072215;28;20120;-85
2024/01/08 07:33:01;;;;;;;11.35;3.55;;;-1.80;99.90;;;;;;5033822;28;20044;-87
2024/01/08 07:35:27;;;;;;;9.43;4.05;;;-1.70;99.90;;;;;;5051271;28;20052;-79
2024/01/08 07:37:55;;;;;;;12.65;5.03;;;-1.60;99.90;;;;;;5072033;28;20040;-84
2024/01/08 07:40:25;;;;;;;8.77;3.58;;;-1.60;99.90;;;;;;5072223;28;20048;-85
2024/01/08 07:42:55;;;;;;;10.27;3.97;;;-1.60;99.90;;;;;;5052938;28;20504;-89
2024/01/08 07:45:26;;;;;;;9.02;3.63;;;-1.60;99.90;;;;;;5053798;28;20056;-82
2024/01/08 07:47:52;;;;;;;9.77;3.63;;;-1.20;99.90;;;;;;5036587;28;20056;-84
2024/01/08 07:50:19;;;;;;;5.60;3.13;;;-1.50;99.90;;;;;;5050894;28;20150;-88
2024/01/08 07:52:45;;;;;;;11.15;3.90;;;-1.50;99.90;;;;;;5052025;28;20079;-88
2024/01/08 07:55:10;;;;;;;12.65;3.63;;;-1.50;99.90;;;;;;5033616;28;20088;-86
2024/01/08 07:57:36;;;;;;;8.85;3.72;;;-1.50;99.90;;;;;;5068616;28;20036;-82
2024/01/08 08:00:05;;;;;;;8.13;3.42;;;-1.50;99.90;;;;;;5052774;28;20053;-85
2024/01/08 08:02:30;;;;;;;6.72;3.47;;;-1.40;99.90;;;;;;5053642;28;20052;-86
2024/01/08 08:04:56;;;;;;;7.60;3.28;;;-1.40;99.90;;;;;;5053782;28;20445;-86
2024/01/08 08:07:22;;;;;;;9.40;3.55;;;-1.50;99.90;;;;;;5072381;28;20384;-86
2024/01/08 08:09:47;;;;;;;9.38;3.22;;;-1.40;99.90;;;;;;5053860;28;20107;-89
2024/01/08 08:12:13;;;;;;;11.27;3.90;;;-1.40;99.90;;;;;;5071654;28;20051;-86
2024/01/08 08:14:38;;;;;;;6.90;3.45;;;-1.30;99.90;;;;;;5071264;28;20046;-87
2024/01/08 08:17:04;;;;;;;6.70;3.95;;;-1.30;99.90;;;;;;5071868;28;20055;-83
2024/01/08 08:19:30;;;;;;;11.13;3.83;;;-1.30;99.90;;;;;;5066416;28;20048;-84
2024/01/08 08:21:56;;;;;;;8.52;3.17;;;-1.30;99.90;;;;;;5071836;28;20060;-86
2024/01/08 08:24:22;;;;;;;8.52;3.10;;;-1.20;99.90;;;;;;5052025;28;20045;-87
2024/01/08 08:26:48;;;;;;;8.63;3.33;;;-1.20;99.90;;;;;;5053936;28;20514;-87
2024/01/08 08:29:14;;;;;;;9.50;3.25;;;-1.20;99.90;;;;;;5071851;28;20076;-80
2024/01/08 08:31:39;;;;;;;12.40;3.33;;;-1.20;99.90;;;;;;5052640;28;20048;-91
2024/01/08 08:34:05;;;;;;;12.75;3.28;;;-1.10;99.90;;;;;;5071217;28;20044;-82
2024/01/08 08:36:31;;;;;;;7.95;3.70;;;-1.10;99.90;;;;;;5071784;28;20040;-85
2024/01/08 08:38:56;;;;;;;6.93;3.35;;;-1.10;99.90;;;;;;5071429;28;20098;-86
2024/01/08 08:41:22;;;;;;;7.22;3.40;;;-0.30;99.90;;;;;;5052707;28;20407;-84
2024/01/08 08:43:48;;;;;;;8.15;3.40;;;-1.10;99.90;;;;;;5036250;28;20048;-86
2024/01/08 08:46:15;;;;;;;12.25;3.47;;;-1.00;99.90;;;;;;5050755;28;20048;-83
2024/01/08 08:48:41;;;;;;;8.88;3.17;;;-1.00;99.90;;;;;;5035914;28;20052;-87
2024/01/08 08:51:06;;;;;;;9.77;3.78;;;-1.00;99.90;;;;;;5070826;28;20044;-81
2024/01/08 08:53:32;;;;;;;8.70;3.28;;;-1.00;99.90;;;;;;5049069;28;20373;-82
2024/01/08 08:55:58;;;;;;;7.35;2.80;;;-1.00;99.90;;;;;;5051274;28;20044;-84
2024/01/08 08:58:23;;;;;;;8.63;3.67;;;-0.90;99.90;;;;;;5052687;28;20131;-84
2024/01/08 09:00:50;;;;;;;13.18;3.05;;;-0.90;99.90;;;;;;5052680;28;20099;-83
2024/01/08 09:03:15;;;;;;;10.35;3.00;;;-0.90;99.90;;;;;;5070019;28;20115;-81
2024/01/08 09:05:41;;;;;;;10.70;3.88;;;-0.90;99.90;;;;;;5052407;28;20127;-83
2024/01/08 09:08:07;;;;;;;21.10;3.20;;;-0.80;99.90;;;;;;5069434;28;20542;-86
2024/01/08 09:10:33;;;;;;;11.93;2.92;;;-0.80;99.90;;;;;;5046471;28;20109;-86
2024/01/08 09:13:01;;;;;;;9.23;3.28;;;-0.80;99.90;;;;;;5071260;28;20123;-81
2024/01/08 09:15:27;;;;;;;7.38;2.97;;;-0.80;99.90;;;;;;5067794;28;20128;-84
2024/01/08 09:17:52;;;;;;;7.82;3.28;;;-0.80;99.90;;;;;;5068515;28;20203;-80
2024/01/08 09:20:18;;;;;;;10.70;3.10;;;-0.70;99.90;;;;;;5052424;28;20506;-87
2024/01/08 09:22:44;;;;;;;8.02;3.72;;;-0.70;99.90;;;;;;5049963;28;20063;-82
2024/01/08 09:25:09;;;;;;;8.55;3.72;;;-0.70;99.90;;;;;;5052522;28;20036;-85
2024/01/08 09:27:37;;;;;;;7.90;3.35;;;-0.60;99.90;;;;;;5053219;28;20048;-88
2024/01/08 09:30:05;;;;;;;10.02;3.70;;;-0.60;99.90;;;;;;5052227;28;20248;-86
2024/01/08 09:32:31;;;;;;;11.68;3.70;;;-0.60;99.90;;;;;;5070375;28;20090;-85
2024/01/08 09:34:57;;;;;;;7.07;3.20;;;-0.50;99.90;;;;;;5064476;28;20040;-79
2024/01/08 09:37:22;;;;;;;7.70;3.28;;;-0.50;99.90;;;;;;5069059;28;20067;-82
2024/01/08 09:39:48;;;;;;;10.07;3.10;;;-0.50;99.90;;;;;;5068600;28;20049;-80
2024/01/08 09:42:15;;;;;;;10.13;2.72;;;-0.40;99.90;;;;;;5048912;28;20041;-78
2024/01/08 09:44:48;;;;;;;7.53;2.42;;;-0.50;99.90;;;;;;5067273;28;20040;-79
2024/01/08 09:47:15;;;;;;;7.07;2.00;;;-0.40;99.90;;;;;;5063009;28;20048;-80
2024/01/08 09:49:41;;;;;;;10.57;2.38;;;-0.40;99.90;;;;;;5046645;28;20076;-80
2024/01/08 09:52:10;;;;;;;8.35;1.80;;;-0.40;99.90;;;;;;5048722;28;20131;-79
2024/01/08 09:54:36;;;;;;;7.03;2.40;;;-0.40;99.90;;;;;;5051180;28;20435;-83
2024/01/08 09:57:03;;;;;;;6.95;2.50;;;-0.30;99.90;;;;;;5069658;28;20499;-84
2024/01/08 09:59:29;;;;;;;6.20;2.10;;;-0.30;99.90;;;;;;5069816;28;20063;-81
2024/01/08 10:01:56;;;;;;;4.43;2.00;;;-0.20;99.90;;;;;;5069978;28;20036;-86
2024/01/08 10:04:25;;;;;;;5.90;2.40;;;-0.20;99.90;;;;;;5069819;28;20381;-78
2024/01/08 10:07:06;;;;;;;4.97;1.80;;;-0.30;99.90;;;;;;5069580;28;20066;-85
2024/01/08 10:09:31;;;;;;;7.03;2.00;;;-0.30;99.90;;;;;;5049772;28;20049;-87
2024/01/08 10:11:58;;;;;;;4.25;2.17;;;-0.30;99.90;;;;;;5069545;28;20119;-83
2024/01/08 10:14:25;;;;;;;4.53;2.00;;;-0.30;99.90;;;;;;5069798;28;20106;-87
2024/01/08 10:16:51;;;;;;;5.38;2.30;;;-0.30;99.90;;;;;;5047084;28;20099;-86
2024/01/08 10:19:18;;;;;;;5.13;1.80;;;-0.30;99.90;;;;;;5069174;28;20060;-83
2024/01/08 10:21:46;;;;;;;11.57;2.50;;;-0.30;99.90;;;;;;5069272;28;20111;-82
2024/01/08 10:24:12;;;;;;;5.57;2.03;;;-0.20;99.90;;;;;;5069580;28;20049;-83
2024/01/08 10:26:41;;;;;;;4.03;2.03;;;-0.20;99.90;;;;;;5069455;28;20059;-83
2024/01/08 10:29:13;;;;;;;6.03;2.20;;;-0.20;99.90;;;;;;5068569;28;20044;-83
2024/01/08 10:31:39;;;;;;;4.60;1.98;;;-0.10;99.90;;;;;;5061973;28;20123;-85
2024/01/08 10:34:06;;;;;;;3.85;1.88;;;-0.20;99.90;;;;;;5062085;28;20123;-88
2024/01/08 10:36:36;;;;;;;4.95;2.30;;;1.10;99.90;;;;;;5061524;28;20465;-84
2024/01/08 10:39:02;;;;;;;6.18;2.28;;;-0.10;99.90;;;;;;5062678;28;20124;-84
2024/01/08 10:41:28;;;;;;;8.73;2.08;;;-0.10;99.90;;;;;;5064089;28;20037;-94
2024/01/08 10:43:54;;;;;;;4.88;2.20;;;1.00;99.90;;;;;;5053518;28;20549;-85
2024/01/08 10:46:21;;;;;;;6.05;2.38;;;-0.10;99.90;;;;;;5069074;28;20528;-83
2024/01/08 10:48:50;;;;;;;6.47;2.22;;;-0.10;99.90;;;;;;5053596;28;20049;-83
2024/01/08 10:51:17;;;;;;;5.07;2.58;;;0.00;99.90;;;;;;5066939;28;20055;-84
2024/01/08 10:53:49;;;;;;;4.65;2.20;;;-0.10;99.90;;;;;;5054213;28;20044;-87
2024/01/08 10:56:16;;;;;;;7.35;2.35;;;0.00;99.90;;;;;;5054966;28;20051;-85
2024/01/08 10:59:05;;;;;;;5.72;2.42;;;0.00;99.90;;;;;;5072827;28;20673;-86
2024/01/08 11:01:32;;;;;;;4.25;1.83;;;0.00;99.90;;;;;;5067418;28;20491;-86
2024/01/08 11:04:00;;;;;;;7.57;2.20;;;-0.10;99.90;;;;;;5072572;28;20375;-86
2024/01/08 11:06:28;;;;;;;5.18;2.30;;;0.90;99.90;;;;;;5037975;28;20076;-87
2024/01/08 11:08:57;;;;;;;7.47;3.22;;;-0.10;99.90;;;;;;5072431;28;20040;-81
2024/01/08 11:11:23;;;;;;;7.72;2.53;;;-0.10;99.90;;;;;;5065096;28;20131;-85
2024/01/08 11:13:49;;;;;;;6.00;2.10;;;0.00;99.90;;;;;;5051218;28;20156;-91
2024/01/08 11:16:29;;;;;;;4.82;2.00;;;-0.10;99.90;;;;;;5072099;28;20055;-83
2024/01/08 11:19:19;;;;;;;5.15;2.38;;;0.00;99.90;;;;;;5072599;28;20190;-84
2024/01/08 11:21:49;;;;;;;3.63;1.83;;;0.00;99.90;;;;;;5067616;28;20758;-84
2024/01/08 11:24:15;;;;;;;3.92;1.67;;;0.00;99.90;;;;;;5072262;28;20505;-85
2024/01/08 11:26:44;;;;;;;5.72;2.13;;;0.70;99.90;;;;;;5072233;28;20110;-85
2024/01/08 11:29:11;;;;;;;8.75;2.17;;;0.00;99.90;;;;;;5071967;28;20049;-85
2024/01/08 11:32:14;;;;;;;5.35;1.77;;;0.90;99.90;;;;;;5072524;28;20048;-86
2024/01/08 11:35:03;;;;;;;5.57;2.55;;;0.00;99.90;;;;;;5054007;28;20426;-86
2024/01/08 11:37:33;;;;;;;5.15;1.70;;;0.00;99.90;;;;;;5054493;28;20044;-84
2024/01/08 11:40:02;;;;;;;4.80;2.08;;;0.00;99.90;;;;;;5051509;28;20053;-83
2024/01/08 11:42:30;;;;;;;6.20;2.30;;;-0.10;99.90;;;;;;5071434;28;20055;-92
2024/01/08 11:45:01;;;;;;;4.20;2.00;;;1.40;99.90;;;;;;5053746;28;20052;-84
2024/01/08 11:47:29;;;;;;;4.90;1.95;;;0.10;99.90;;;;;;5054654;28;20049;-86
2024/01/08 11:49:54;;;;;;;4.63;2.13;;;0.00;99.90;;;;;;5053852;28;20161;-86
2024/01/08 11:52:20;;;;;;;6.88;1.92;;;0.00;99.90;;;;;;5054393;28;20075;-87
2024/01/08 11:54:48;;;;;;;5.68;1.98;;;-0.10;99.90;;;;;;5053984;28;20056;-84
2024/01/08 11:57:19;;;;;;;6.60;2.47;;;-0.10;99.90;;;;;;5050508;28;20106;-84
2024/01/08 11:59:45;;;;;;;5.78;2.10;;;0.10;99.90;;;;;;5052615;28;20053;-83
2024/01/08 12:02:21;;;;;;;5.43;2.20;;;0.90;99.90;;;;;;5072136;28;20052;-86
2024/01/08 12:04:57;;;;;;;5.35;2.42;;;0.30;99.90;;;;;;5054051;28;20052;-86
2024/01/08 12:07:25;;;;;;;5.70;2.28;;;0.30;99.90;;;;;;5066978;28;20510;-85
2024/01/08 12:09:51;;;;;;;5.72;2.20;;;0.40;99.90;;;;;;5072281;28;20048;-89
2024/01/08 12:12:17;;;;;;;4.72;2.10;;;0.40;99.90;;;;;;5053607;28;20759;-85
2024/01/08 12:14:47;;;;;;;6.82;2.47;;;0.80;99.90;;;;;;5055641;28;20048;-91
2024/01/08 12:17:15;;;;;;;5.93;2.45;;;0.90;99.90;;;;;;5055723;28;20114;-91
2024/01/08 12:19:57;;;;;;;5.88;2.22;;;1.10;99.90;;;;;;5052314;28;20049;-86
2024/01/08 12:22:24;;;;;;;5.43;2.15;;;1.10;99.90;;;;;;5073691;28;20056;-83
2024/01/08 12:24:51;;;;;;;4.57;2.13;;;0.90;99.90;;;;;;5072575;28;20027;-87
2024/01/08 12:27:19;;;;;;;5.65;2.05;;;0.70;99.90;;;;;;5071935;28;20582;-82
2024/01/08 12:29:45;;;;;;;5.20;1.98;;;0.70;99.90;;;;;;5052130;28;20049;-82
2024/01/08 12:32:16;;;;;;;6.68;2.40;;;0.80;99.90;;;;;;5050486;28;20053;-84
2024/01/08 12:34:42;;;;;;;5.10;1.90;;;0.90;99.90;;;;;;5069963;28;20041;-80
2024/01/08 12:37:09;;;;;;;5.72;2.28;;;1.00;99.90;;;;;;5066973;28;20555;-88
2024/01/08 12:39:36;;;;;;;6.43;2.38;;;1.10;99.90;;;;;;5071791;28;20388;-87
2024/01/08 12:42:11;;;;;;;5.47;2.25;;;1.00;99.90;;;;;;5052461;28;20127;-85
2024/01/08 12:44:36;;;;;;;4.18;2.13;;;1.20;99.90;;;;;;5053026;28;20051;-84